createdAt,value
2022-09-28T00:00:08.028Z,15.70
2022-09-28T00:01:08.581Z,14.80
2022-09-28T00:02:09.246Z,15.20
2022-09-28T00:03:09.979Z,16.10
2022-09-28T00:04:10.562Z,15.20
2022-09-28T00:05:11.139Z,14.70
2022-09-28T00:06:11.695Z,13.30
2022-09-28T00:07:12.253Z,13.50
2022-09-28T00:08:13.142Z,14.40
2022-09-28T00:09:13.795Z,16.20
2022-09-28T00:10:14.388Z,13.60
2022-09-28T00:11:14.944Z,16.30
2022-09-28T00:12:15.495Z,15.90
2022-09-28T00:13:16.114Z,15.10
2022-09-28T00:14:16.673Z,15.70
2022-09-28T00:15:17.226Z,15.20
2022-09-28T00:16:17.837Z,13.30
2022-09-28T00:17:18.427Z,16.00
2022-09-28T00:18:19.113Z,12.30
2022-09-28T00:19:19.663Z,11.90
2022-09-28T00:20:20.231Z,12.80
2022-09-28T00:21:20.774Z,13.10
2022-09-28T00:22:21.324Z,15.20
2022-09-28T00:23:21.945Z,13.10
2022-09-28T00:24:27.324Z,15.10
2022-09-28T00:25:23.404Z,15.50
2022-09-28T00:26:23.944Z,15.90
2022-09-28T00:27:24.498Z,15.20
2022-09-28T00:28:25.090Z,13.50
2022-09-28T00:29:25.630Z,16.70
2022-09-28T00:30:26.175Z,13.60
2022-09-28T00:31:26.796Z,13.20
2022-09-28T00:32:27.373Z,17.20
2022-09-28T00:33:27.992Z,14.60
2022-09-28T00:34:28.544Z,14.30
2022-09-28T00:35:29.111Z,12.90
2022-09-28T00:36:29.654Z,15.20
2022-09-28T00:37:30.207Z,17.00
2022-09-28T00:38:30.792Z,13.30
2022-09-28T00:39:31.335Z,12.80
2022-09-28T00:40:32.008Z,16.30
2022-09-28T00:41:32.589Z,13.90
2022-09-28T00:42:33.148Z,17.40
2022-09-28T00:43:33.919Z,15.40
2022-09-28T00:44:34.474Z,14.00
2022-09-28T00:45:35.148Z,16.80
2022-09-28T00:46:35.748Z,14.20
2022-09-28T00:47:36.297Z,15.30
2022-09-28T00:48:36.947Z,14.40
2022-09-28T00:49:37.503Z,14.10
2022-09-28T00:50:38.080Z,13.00
2022-09-28T00:51:38.631Z,16.30
2022-09-28T00:52:39.176Z,14.70
2022-09-28T00:53:39.749Z,12.60
2022-09-28T00:54:40.300Z,14.40
2022-09-28T00:55:40.846Z,13.30
2022-09-28T00:56:41.393Z,12.60
2022-09-28T00:57:41.944Z,14.40
2022-09-28T00:58:42.598Z,13.50
2022-09-28T00:59:43.162Z,14.50
2022-09-28T01:00:43.765Z,13.70
2022-09-28T01:01:44.440Z,15.30
2022-09-28T01:02:45.061Z,17.50
2022-09-28T01:03:45.680Z,19.00
2022-09-28T01:04:46.276Z,14.80
2022-09-28T01:05:46.906Z,15.80
2022-09-28T01:06:47.450Z,14.30
2022-09-28T01:07:47.992Z,15.80
2022-09-28T01:08:48.568Z,17.50
2022-09-28T01:09:49.111Z,14.10
2022-09-28T01:10:49.657Z,14.30
2022-09-28T01:11:50.209Z,14.70
2022-09-28T01:12:50.761Z,18.20
2022-09-28T01:13:51.481Z,15.70
2022-09-28T01:14:52.027Z,14.50
2022-09-28T01:15:52.697Z,15.10
2022-09-28T01:16:53.309Z,15.40
2022-09-28T01:17:53.862Z,15.90
2022-09-28T01:18:54.503Z,16.00
2022-09-28T01:19:55.059Z,16.70
2022-09-28T01:20:55.627Z,16.90
2022-09-28T01:21:56.169Z,16.90
2022-09-28T01:22:56.716Z,20.80
2022-09-28T01:23:57.326Z,16.90
2022-09-28T01:24:57.876Z,17.00
2022-09-28T01:25:58.423Z,17.50
2022-09-28T01:26:58.981Z,17.60
2022-09-28T01:27:59.537Z,16.90
2022-09-28T01:29:00.138Z,16.70
2022-09-28T01:30:00.691Z,16.90
2022-09-28T01:31:01.233Z,17.10
2022-09-28T01:32:01.876Z,17.00
2022-09-28T01:33:02.483Z,17.00
2022-09-28T01:34:03.067Z,16.60
2022-09-28T01:35:03.626Z,16.90
2022-09-28T01:36:04.209Z,17.40
2022-09-28T01:37:04.764Z,17.80
2022-09-28T01:38:05.313Z,17.30
2022-09-28T01:39:05.894Z,16.40
2022-09-28T01:40:06.446Z,17.10
2022-09-28T01:41:07.008Z,17.10
2022-09-28T01:42:07.556Z,17.30
2022-09-28T01:43:08.112Z,17.10
2022-09-28T01:44:08.870Z,17.70
2022-09-28T01:45:09.419Z,17.70
2022-09-28T01:46:10.060Z,17.10
2022-09-28T01:47:10.672Z,16.60
2022-09-28T01:48:11.223Z,16.40
2022-09-28T01:49:11.894Z,17.20
2022-09-28T01:50:12.443Z,17.10
2022-09-28T01:51:13.022Z,16.10
2022-09-28T01:52:13.567Z,15.90
2022-09-28T01:53:14.117Z,15.70
2022-09-28T01:54:14.712Z,17.00
2022-09-28T01:55:15.319Z,16.80
2022-09-28T01:56:15.865Z,15.90
2022-09-28T01:57:16.419Z,16.50
2022-09-28T01:58:16.971Z,19.40
2022-09-28T01:59:17.828Z,16.70
2022-09-28T02:00:18.478Z,16.10
2022-09-28T02:01:19.042Z,16.10
2022-09-28T02:02:19.749Z,15.60
2022-09-28T02:03:20.355Z,17.60
2022-09-28T02:04:20.949Z,18.60
2022-09-28T02:05:21.537Z,16.40
2022-09-28T02:06:22.102Z,17.60
2022-09-28T02:07:22.652Z,17.00
2022-09-28T02:08:23.201Z,17.50
2022-09-28T02:09:23.775Z,17.00
2022-09-28T02:10:24.324Z,17.00
2022-09-28T02:11:24.866Z,17.30
2022-09-28T02:12:25.417Z,16.90
2022-09-28T02:13:25.974Z,17.50
2022-09-28T02:14:26.591Z,17.00
2022-09-28T02:15:27.154Z,16.30
2022-09-28T02:16:27.752Z,17.00
2022-09-28T02:17:28.311Z,16.90
2022-09-28T02:18:28.865Z,16.30
2022-09-28T02:19:29.470Z,16.60
2022-09-28T02:20:30.022Z,17.50
2022-09-28T02:21:30.608Z,16.70
2022-09-28T02:22:31.164Z,17.20
2022-09-28T02:23:31.704Z,16.10
2022-09-28T02:24:32.486Z,16.10
2022-09-28T02:25:33.035Z,16.80
2022-09-28T02:26:33.595Z,16.60
2022-09-28T02:27:34.139Z,18.10
2022-09-28T02:28:34.690Z,15.80
2022-09-28T02:29:35.259Z,16.00
2022-09-28T02:30:35.820Z,17.10
2022-09-28T02:31:36.421Z,16.70
2022-09-28T02:32:37.000Z,17.00
2022-09-28T02:33:37.557Z,16.50
2022-09-28T02:34:38.141Z,16.50
2022-09-28T02:35:38.692Z,17.70
2022-09-28T02:36:39.263Z,17.50
2022-09-28T02:37:39.811Z,17.90
2022-09-28T02:38:40.369Z,17.50
2022-09-28T02:39:40.955Z,17.70
2022-09-28T02:40:41.554Z,17.80
2022-09-28T02:41:42.129Z,18.10
2022-09-28T02:42:42.677Z,17.20
2022-09-28T02:43:43.234Z,17.10
2022-09-28T02:44:44.005Z,18.20
2022-09-28T02:45:44.641Z,17.90
2022-09-28T02:46:45.232Z,17.40
2022-09-28T02:47:45.770Z,17.40
2022-09-28T02:48:55.786Z,18.00
2022-09-28T02:49:47.290Z,17.80
2022-09-28T02:50:47.839Z,17.10
2022-09-28T02:51:48.413Z,18.00
2022-09-28T02:52:48.964Z,19.80
2022-09-28T02:53:49.527Z,17.20
2022-09-28T02:54:50.171Z,19.40
2022-09-28T02:55:50.721Z,17.10
2022-09-28T02:56:51.272Z,17.00
2022-09-28T02:57:51.817Z,19.80
2022-09-28T02:58:52.367Z,17.30
2022-09-28T02:59:52.991Z,17.90
2022-09-28T03:00:53.606Z,17.30
2022-09-28T03:01:54.286Z,18.40
2022-09-28T03:02:54.888Z,18.20
2022-09-28T03:03:55.517Z,17.80
2022-09-28T03:04:56.228Z,18.20
2022-09-28T03:05:56.775Z,20.00
2022-09-28T03:06:57.353Z,17.60
2022-09-28T03:07:57.910Z,17.60
2022-09-28T03:08:58.459Z,17.10
2022-09-28T03:09:59.044Z,16.80
2022-09-28T03:10:59.586Z,16.70
2022-09-28T03:12:00.129Z,17.80
2022-09-28T03:13:00.668Z,17.20
2022-09-28T03:14:01.215Z,17.20
2022-09-28T03:15:01.840Z,20.10
2022-09-28T03:16:02.449Z,15.90
2022-09-28T03:17:03.048Z,15.90
2022-09-28T03:18:03.601Z,18.70
2022-09-28T03:19:04.139Z,17.00
2022-09-28T03:20:04.787Z,18.80
2022-09-28T03:21:05.342Z,16.80
2022-09-28T03:22:05.912Z,16.50
2022-09-28T03:23:23.858Z,18.70
2022-09-28T03:24:07.374Z,15.50
2022-09-28T03:25:07.945Z,16.10
2022-09-28T03:26:08.487Z,14.90
2022-09-28T03:27:09.094Z,14.90
2022-09-28T03:28:09.638Z,16.60
2022-09-28T03:29:10.290Z,17.40
2022-09-28T03:30:10.943Z,16.20
2022-09-28T03:31:11.508Z,20.20
2022-09-28T03:32:12.077Z,15.60
2022-09-28T03:33:12.629Z,16.00
2022-09-28T03:34:13.179Z,18.10
2022-09-28T03:35:13.754Z,17.30
2022-09-28T03:36:14.315Z,19.40
2022-09-28T03:37:14.899Z,19.90
2022-09-28T03:38:15.451Z,15.90
2022-09-28T03:39:16.090Z,16.20
2022-09-28T03:40:16.800Z,17.20
2022-09-28T03:41:17.387Z,17.70
2022-09-28T03:42:17.938Z,17.60
2022-09-28T03:43:18.486Z,19.90
2022-09-28T03:44:19.027Z,17.90
2022-09-28T03:45:19.693Z,17.10
2022-09-28T03:46:20.307Z,17.40
2022-09-28T03:47:20.894Z,17.80
2022-09-28T03:48:24.514Z,15.90
2022-09-28T03:49:22.382Z,18.00
2022-09-28T03:50:23.039Z,18.40
2022-09-28T03:51:23.587Z,16.10
2022-09-28T03:52:24.163Z,17.60
2022-09-28T03:53:24.666Z,19.00
2022-09-28T03:54:25.217Z,18.30
2022-09-28T03:55:25.796Z,15.40
2022-09-28T03:56:26.353Z,15.70
2022-09-28T03:57:26.874Z,16.70
2022-09-28T03:58:27.434Z,16.70
2022-09-28T03:59:27.936Z,16.50
2022-09-28T04:00:28.598Z,15.80
2022-09-28T04:01:29.162Z,16.90
2022-09-28T04:02:29.804Z,17.00
2022-09-28T04:03:30.344Z,16.40
2022-09-28T04:04:30.839Z,14.20
2022-09-28T04:05:31.845Z,14.80
2022-09-28T04:06:32.335Z,14.40
2022-09-28T04:07:32.851Z,16.70
2022-09-28T04:08:33.351Z,15.20
2022-09-28T04:09:33.862Z,13.70
2022-09-28T04:10:34.388Z,15.80
2022-09-28T04:11:53.136Z,16.40
2022-09-28T04:12:35.747Z,16.60
2022-09-28T04:13:36.248Z,15.10
2022-09-28T04:14:36.753Z,14.60
2022-09-28T04:15:37.267Z,15.80
2022-09-28T04:16:37.821Z,15.20
2022-09-28T04:17:40.277Z,20.40
2022-09-28T04:18:38.887Z,16.20
2022-09-28T04:19:39.384Z,13.60
2022-09-28T04:20:39.983Z,16.30
2022-09-28T04:21:40.480Z,15.20
2022-09-28T04:22:41.495Z,16.00
2022-09-28T04:23:41.997Z,15.70
2022-09-28T04:24:42.499Z,16.50
2022-09-28T04:25:43.027Z,14.70
2022-09-28T04:26:43.521Z,17.80
2022-09-28T04:27:45.161Z,14.30
2022-09-28T04:28:44.960Z,15.50
2022-09-28T04:29:45.457Z,18.20
2022-09-28T04:30:46.757Z,18.00
2022-09-28T04:31:47.309Z,13.30
2022-09-28T04:32:47.848Z,13.70
2022-09-28T04:33:48.336Z,15.60
2022-09-28T04:34:49.336Z,15.50
2022-09-28T04:35:49.867Z,15.80
2022-09-28T04:36:50.369Z,16.20
2022-09-28T04:37:50.889Z,16.60
2022-09-28T04:38:53.625Z,16.70
2022-09-28T04:39:52.285Z,15.00
2022-09-28T04:40:53.362Z,13.90
2022-09-28T04:41:53.387Z,18.60
2022-09-28T04:42:54.699Z,16.60
2022-09-28T04:43:54.723Z,17.20
2022-09-28T04:44:55.212Z,14.70
2022-09-28T04:45:56.415Z,17.20
2022-09-28T04:46:56.659Z,15.90
2022-09-28T04:47:58.717Z,15.80
2022-09-28T04:48:57.896Z,16.70
2022-09-28T04:49:58.388Z,17.30
2022-09-28T04:50:58.939Z,16.40
2022-09-28T04:51:59.431Z,15.60
2022-09-28T04:53:00.450Z,14.50
2022-09-28T04:54:00.991Z,16.80
2022-09-28T04:55:01.511Z,15.00
2022-09-28T04:56:02.073Z,13.80
2022-09-28T04:57:10.216Z,16.10
2022-09-28T04:58:03.256Z,15.20
2022-09-28T04:59:03.766Z,15.50
2022-09-28T05:00:04.272Z,16.30
2022-09-28T05:01:05.101Z,18.80
2022-09-28T05:02:07.884Z,18.00
2022-09-28T05:03:10.852Z,16.30
2022-09-28T05:04:07.196Z,19.40
2022-09-28T05:05:08.809Z,18.50
2022-09-28T05:06:24.727Z,17.40
2022-09-28T05:07:09.003Z,19.30
2022-09-28T05:08:10.643Z,20.80
2022-09-28T05:09:10.469Z,18.20
2022-09-28T05:10:11.020Z,18.90
2022-09-28T05:11:37.025Z,18.40
2022-09-28T05:12:12.448Z,19.20
2022-09-28T05:13:12.970Z,17.70
2022-09-28T05:14:24.473Z,18.20
2022-09-28T05:15:14.384Z,17.90
2022-09-28T05:16:16.184Z,20.20
2022-09-28T05:17:15.549Z,17.60
2022-09-28T05:18:27.889Z,17.50
2022-09-28T05:19:17.947Z,18.10
2022-09-28T05:20:19.759Z,17.90
2022-09-28T05:21:20.962Z,20.10
2022-09-28T05:22:20.330Z,17.80
2022-09-28T05:23:30.068Z,17.50
2022-09-28T05:24:30.870Z,17.20
2022-09-28T05:25:22.163Z,16.80
2022-09-28T05:26:22.656Z,16.90
2022-09-28T05:27:23.682Z,17.00
2022-09-28T05:28:24.192Z,16.80
2022-09-28T05:29:25.803Z,16.50
2022-09-28T05:30:25.523Z,16.90
2022-09-28T05:31:26.075Z,16.60
2022-09-28T05:32:26.623Z,16.30
2022-09-28T05:33:27.121Z,16.10
2022-09-28T05:34:27.619Z,17.10
2022-09-28T05:35:28.117Z,16.90
2022-09-28T05:36:28.626Z,16.10
2022-09-28T05:37:29.153Z,16.40
2022-09-28T05:38:29.656Z,16.60
2022-09-28T05:39:30.176Z,16.30
2022-09-28T05:40:30.844Z,17.10
2022-09-28T05:41:31.370Z,17.50
2022-09-28T05:42:31.897Z,17.70
2022-09-28T05:43:32.389Z,16.20
2022-09-28T05:44:32.883Z,16.30
2022-09-28T05:45:33.476Z,16.60
2022-09-28T05:46:34.029Z,16.90
2022-09-28T05:47:34.614Z,17.00
2022-09-28T05:48:35.123Z,17.00
2022-09-28T05:49:35.720Z,17.10
2022-09-28T05:50:36.238Z,17.80
2022-09-28T05:51:36.739Z,17.50
2022-09-28T05:52:37.263Z,18.70
2022-09-28T05:53:37.763Z,17.50
2022-09-28T05:54:38.290Z,17.20
2022-09-28T05:55:38.815Z,17.10
2022-09-28T05:56:39.318Z,16.90
2022-09-28T05:57:39.920Z,20.80
2022-09-28T05:58:40.429Z,17.10
2022-09-28T05:59:42.668Z,17.60
2022-09-28T06:00:42.178Z,17.10
2022-09-28T06:01:42.840Z,17.00
2022-09-28T06:02:43.785Z,17.90
2022-09-28T06:03:44.282Z,18.50
2022-09-28T06:04:45.127Z,19.20
2022-09-28T06:05:45.655Z,18.20
2022-09-28T06:06:46.145Z,18.50
2022-09-28T06:07:46.707Z,20.00
2022-09-28T06:08:47.319Z,18.00
2022-09-28T06:09:47.849Z,17.40
2022-09-28T06:10:48.356Z,18.10
2022-09-28T06:11:49.983Z,18.00
2022-09-28T06:12:49.708Z,17.50
2022-09-28T06:13:50.206Z,17.80
2022-09-28T06:14:50.707Z,20.30
2022-09-28T06:15:51.203Z,18.10
2022-09-28T06:16:51.746Z,18.20
2022-09-28T06:17:52.481Z,18.30
2022-09-28T06:19:03.284Z,19.30
2022-09-28T06:19:53.766Z,19.00
2022-09-28T06:20:54.262Z,19.50
2022-09-28T06:21:54.761Z,17.90
2022-09-28T06:22:55.299Z,18.00
2022-09-28T06:23:55.795Z,17.90
2022-09-28T06:24:56.309Z,18.10
2022-09-28T06:26:00.709Z,18.40
2022-09-28T06:27:00.403Z,17.70
2022-09-28T06:27:58.455Z,19.60
2022-09-28T06:28:58.950Z,20.00
2022-09-28T06:29:59.448Z,18.40
2022-09-28T06:31:00.046Z,17.90
2022-09-28T06:32:00.594Z,18.50
2022-09-28T06:33:01.120Z,17.70
2022-09-28T06:34:01.607Z,20.60
2022-09-28T06:35:02.112Z,19.40
2022-09-28T06:36:03.109Z,19.70
2022-09-28T06:37:03.596Z,19.00
2022-09-28T06:38:04.137Z,21.00
2022-09-28T06:39:04.637Z,18.30
2022-09-28T06:40:05.241Z,18.10
2022-09-28T06:41:05.807Z,17.40
2022-09-28T06:42:06.362Z,20.30
2022-09-28T06:43:08.947Z,18.00
2022-09-28T06:44:07.590Z,18.10
2022-09-28T06:45:08.098Z,19.70
2022-09-28T06:46:08.722Z,19.10
2022-09-28T06:47:09.274Z,19.50
2022-09-28T06:48:10.841Z,18.40
2022-09-28T06:49:10.338Z,19.10
2022-09-28T06:50:10.832Z,18.50
2022-09-28T06:51:12.440Z,17.20
2022-09-28T06:52:13.199Z,16.70
2022-09-28T06:53:12.724Z,17.10
2022-09-28T06:54:13.218Z,17.40
2022-09-28T06:55:14.237Z,18.90
2022-09-28T06:56:14.736Z,18.00
2022-09-28T06:57:15.234Z,19.10
2022-09-28T06:58:16.265Z,18.70
2022-09-28T06:59:20.873Z,18.60
2022-09-28T07:00:17.619Z,18.50
2022-09-28T07:01:18.197Z,18.80
2022-09-28T07:02:21.494Z,18.20
2022-09-28T07:03:19.579Z,18.20
2022-09-28T07:04:21.535Z,18.10
2022-09-28T07:05:21.046Z,17.80
2022-09-28T07:06:24.572Z,17.40
2022-09-28T07:07:22.576Z,17.30
2022-09-28T07:08:23.133Z,18.30
2022-09-28T07:09:33.154Z,17.20
2022-09-28T07:10:24.516Z,17.20
2022-09-28T07:11:25.349Z,17.30
2022-09-28T07:12:25.846Z,17.20
2022-09-28T07:13:48.840Z,16.70
2022-09-28T07:14:44.392Z,17.60
2022-09-28T07:15:28.579Z,17.90
2022-09-28T07:16:48.826Z,17.70
2022-09-28T07:17:30.349Z,17.50
2022-09-28T07:18:30.669Z,18.00
2022-09-28T07:19:31.229Z,17.20
2022-09-28T07:20:33.309Z,17.70
2022-09-28T07:21:32.749Z,17.80
2022-09-28T07:22:42.433Z,18.00
2022-09-28T07:23:43.577Z,17.50
2022-09-28T07:24:35.048Z,18.80
2022-09-28T07:25:35.643Z,18.60
2022-09-28T07:26:36.243Z,18.50
2022-09-28T07:27:58.750Z,17.10
2022-09-28T07:28:51.445Z,18.30
2022-09-28T07:29:38.740Z,18.60
2022-09-28T07:30:39.507Z,18.80
2022-09-28T07:31:40.068Z,19.30
2022-09-28T07:32:41.067Z,19.50
2022-09-28T07:33:41.775Z,19.80
2022-09-28T07:36:32.249Z,19.50
2022-09-28T07:37:34.874Z,18.50
2022-09-28T07:38:36.345Z,18.70
2022-09-28T07:39:34.434Z,18.20
2022-09-28T07:40:35.276Z,18.50
2022-09-28T07:41:35.807Z,18.10
2022-09-28T07:42:36.449Z,19.20
2022-09-28T07:43:40.158Z,18.40
2022-09-28T07:44:47.972Z,18.30
2022-09-28T07:45:38.770Z,18.60
2022-09-28T07:46:40.532Z,17.60
2022-09-28T07:47:40.084Z,17.30
2022-09-28T07:48:40.692Z,17.70
2022-09-28T07:49:41.299Z,17.50
2022-09-28T07:50:41.825Z,17.30
2022-09-28T07:51:42.321Z,17.10
2022-09-28T07:52:43.176Z,17.60
2022-09-28T07:53:43.723Z,18.00
2022-09-28T07:54:44.248Z,19.10
2022-09-28T07:55:46.587Z,21.70
2022-09-28T07:56:45.609Z,21.60
2022-09-28T07:57:46.106Z,25.50
2022-09-28T07:58:46.619Z,27.30
2022-09-28T07:59:47.371Z,26.20
2022-09-28T08:00:47.924Z,26.50
2022-09-28T08:01:48.454Z,26.90
2022-09-28T08:02:49.632Z,25.90
2022-09-28T08:03:49.637Z,24.60
2022-09-28T08:04:56.159Z,24.80
2022-09-28T08:06:04.376Z,25.20
2022-09-28T08:07:06.758Z,22.70
2022-09-28T08:07:52.426Z,21.20
2022-09-28T08:08:57.000Z,20.00
2022-09-28T08:09:54.594Z,21.70
2022-09-28T08:11:54.290Z,19.30
2022-09-28T08:13:02.163Z,18.70
2022-09-28T08:13:56.700Z,17.90
2022-09-28T08:15:01.678Z,18.20
2022-09-28T08:15:58.380Z,18.30
2022-09-28T08:16:58.932Z,18.00
2022-09-28T08:18:02.932Z,17.80
2022-09-28T08:19:00.019Z,18.20
2022-09-28T08:20:01.032Z,18.30
2022-09-28T08:21:01.167Z,18.50
2022-09-28T08:22:01.660Z,17.60
2022-09-28T08:23:02.671Z,17.60
2022-09-28T08:24:03.286Z,18.70
2022-09-28T08:25:03.812Z,19.00
2022-09-28T08:26:04.311Z,17.80
2022-09-28T08:27:04.869Z,17.20
2022-09-28T08:28:05.399Z,18.30
2022-09-28T08:29:05.932Z,17.10
2022-09-28T08:30:06.511Z,17.90
2022-09-28T08:31:07.210Z,17.40
2022-09-28T08:32:07.814Z,17.80
2022-09-28T08:33:08.407Z,18.00
2022-09-28T08:34:08.941Z,17.50
2022-09-28T08:35:09.569Z,17.70
2022-09-28T08:36:10.124Z,18.10
2022-09-28T08:37:10.662Z,17.90
2022-09-28T08:38:11.195Z,16.70
2022-09-28T08:39:11.963Z,18.00
2022-09-28T08:40:12.791Z,18.40
2022-09-28T08:41:13.340Z,18.80
2022-09-28T08:42:13.891Z,17.80
2022-09-28T08:43:14.425Z,18.10
2022-09-28T08:44:14.991Z,18.20
2022-09-28T08:45:15.923Z,18.00
2022-09-28T08:46:16.740Z,17.70
2022-09-28T08:47:17.262Z,18.30
2022-09-28T08:48:17.781Z,18.40
2022-09-28T08:49:25.328Z,18.00
2022-09-28T08:50:19.314Z,17.50
2022-09-28T08:51:19.815Z,17.90
2022-09-28T08:52:20.313Z,17.90
2022-09-28T08:53:20.829Z,18.00
2022-09-28T08:54:21.824Z,17.40
2022-09-28T08:55:22.813Z,16.90
2022-09-28T08:56:23.305Z,16.90
2022-09-28T08:57:23.829Z,17.10
2022-09-28T08:58:24.331Z,16.60
2022-09-28T08:59:24.823Z,18.10
2022-09-28T09:00:26.046Z,17.90
2022-09-28T09:01:26.730Z,16.80
2022-09-28T09:02:27.469Z,16.70
2022-09-28T09:03:27.997Z,17.50
2022-09-28T09:04:28.485Z,17.50
2022-09-28T09:05:29.021Z,18.00
2022-09-28T09:06:29.513Z,17.10
2022-09-28T09:07:30.512Z,17.20
2022-09-28T09:08:31.013Z,18.00
2022-09-28T09:09:31.547Z,17.00
2022-09-28T09:10:32.083Z,18.10
2022-09-28T09:11:32.592Z,17.80
2022-09-28T09:12:33.136Z,18.60
2022-09-28T09:13:33.630Z,18.20
2022-09-28T09:14:34.121Z,17.60
2022-09-28T09:15:34.672Z,18.70
2022-09-28T09:16:35.202Z,17.90
2022-09-28T09:17:35.747Z,17.40
2022-09-28T09:18:36.242Z,17.30
2022-09-28T09:19:36.736Z,19.40
2022-09-28T09:20:37.269Z,19.10
2022-09-28T09:21:37.765Z,19.10
2022-09-28T09:22:38.268Z,18.70
2022-09-28T09:23:38.780Z,18.90
2022-09-28T09:24:39.284Z,18.90
2022-09-28T09:25:39.804Z,18.90
2022-09-28T09:26:40.295Z,18.70
2022-09-28T09:27:41.382Z,19.00
2022-09-28T09:28:41.887Z,18.60
2022-09-28T09:29:42.395Z,18.80
2022-09-28T09:30:42.973Z,18.60
2022-09-28T09:31:43.514Z,18.50
2022-09-28T09:32:44.014Z,19.40
2022-09-28T09:33:44.530Z,19.30
2022-09-28T09:34:45.053Z,20.00
2022-09-28T09:35:45.590Z,22.20
2022-09-28T09:36:46.100Z,20.10
2022-09-28T09:37:46.594Z,20.40
2022-09-28T09:38:47.089Z,20.90
2022-09-28T09:39:47.724Z,19.90
2022-09-28T09:40:48.299Z,20.50
2022-09-28T09:41:48.856Z,22.90
2022-09-28T09:42:49.381Z,27.00
2022-09-28T09:43:50.057Z,26.90
2022-09-28T09:44:50.575Z,28.90
2022-09-28T09:45:51.133Z,31.00
2022-09-28T09:46:51.657Z,31.40
2022-09-28T09:47:52.146Z,31.00
2022-09-28T09:48:52.641Z,32.70
2022-09-28T09:49:53.147Z,32.70
2022-09-28T09:50:53.730Z,36.80
2022-09-28T09:51:58.824Z,36.40
2022-09-28T09:52:54.924Z,35.20
2022-09-28T09:53:55.758Z,35.70
2022-09-28T09:54:56.327Z,36.80
2022-09-28T09:55:56.927Z,34.70
2022-09-28T09:56:57.426Z,35.40
2022-09-28T09:57:57.957Z,35.70
2022-09-28T09:58:58.466Z,37.10
2022-09-28T09:59:58.981Z,36.60
2022-09-28T10:00:59.689Z,34.60
2022-09-28T10:02:00.297Z,36.60
2022-09-28T10:03:00.846Z,37.90
2022-09-28T10:04:01.389Z,42.60
2022-09-28T10:05:01.896Z,39.10
2022-09-28T10:06:02.427Z,42.10
2022-09-28T10:07:02.927Z,40.90
2022-09-28T10:08:03.419Z,40.20
2022-09-28T10:09:09.404Z,40.90
2022-09-28T10:10:06.363Z,38.70
2022-09-28T10:11:05.407Z,40.30
2022-09-28T10:12:05.916Z,39.00
2022-09-28T10:13:06.468Z,37.30
2022-09-28T10:14:06.972Z,38.70
2022-09-28T10:15:07.477Z,39.10
2022-09-28T10:16:08.517Z,41.30
2022-09-28T10:17:11.344Z,39.40
2022-09-28T10:18:23.108Z,36.90
2022-09-28T10:19:10.399Z,38.20
2022-09-28T10:20:10.910Z,37.50
2022-09-28T10:21:11.438Z,38.50
2022-09-28T10:22:11.942Z,38.40
2022-09-28T10:23:12.444Z,37.50
2022-09-28T10:24:12.942Z,37.50
2022-09-28T10:25:13.455Z,36.60
2022-09-28T10:26:13.998Z,37.30
2022-09-28T10:27:14.494Z,35.30
2022-09-28T10:28:15.015Z,35.80
2022-09-28T10:29:15.655Z,34.90
2022-09-28T10:30:16.210Z,34.40
2022-09-28T10:31:16.742Z,36.00
2022-09-28T10:32:17.235Z,34.80
2022-09-28T10:33:17.736Z,36.00
2022-09-28T10:34:18.351Z,32.50
2022-09-28T10:35:18.905Z,33.40
2022-09-28T10:36:19.432Z,34.40
2022-09-28T10:37:19.931Z,33.50
2022-09-28T10:38:20.427Z,34.70
2022-09-28T10:39:20.935Z,36.30
2022-09-28T10:40:21.489Z,34.40
2022-09-28T10:41:22.072Z,34.60
2022-09-28T10:42:22.575Z,35.30
2022-09-28T10:43:23.095Z,34.60
2022-09-28T10:44:23.600Z,34.10
2022-09-28T10:45:24.099Z,35.40
2022-09-28T10:46:24.735Z,31.80
2022-09-28T10:47:25.275Z,33.10
2022-09-28T10:48:25.770Z,31.10
2022-09-28T10:49:26.273Z,31.90
2022-09-28T10:50:26.779Z,30.60
2022-09-28T10:51:27.425Z,29.90
2022-09-28T10:52:27.919Z,30.00
2022-09-28T10:53:28.422Z,30.70
2022-09-28T10:54:28.917Z,29.70
2022-09-28T10:55:29.414Z,27.60
2022-09-28T10:56:29.939Z,28.70
2022-09-28T10:57:30.436Z,27.90
2022-09-28T10:58:30.956Z,27.60
2022-09-28T10:59:31.462Z,28.20
2022-09-28T11:00:31.982Z,29.10
2022-09-28T11:01:32.724Z,31.70
2022-09-28T11:02:35.927Z,28.40
2022-09-28T11:03:33.797Z,29.70
2022-09-28T11:04:34.289Z,29.10
2022-09-28T11:05:46.009Z,30.30
2022-09-28T11:06:37.443Z,30.50
2022-09-28T11:07:36.439Z,32.00
2022-09-28T11:08:36.939Z,30.80
2022-09-28T11:09:37.432Z,31.10
2022-09-28T11:10:37.929Z,32.80
2022-09-28T11:11:38.965Z,33.80
2022-09-28T11:12:39.474Z,32.40
2022-09-28T11:13:40.006Z,30.80
2022-09-28T11:14:42.652Z,32.40
2022-09-28T11:15:41.288Z,31.30
2022-09-28T11:16:41.904Z,30.80
2022-09-28T11:17:42.475Z,31.60
2022-09-28T11:18:42.974Z,31.30
2022-09-28T11:19:43.482Z,31.90
2022-09-28T11:20:45.518Z,30.30
2022-09-28T11:21:44.654Z,32.60
2022-09-28T11:22:45.171Z,31.10
2022-09-28T11:23:45.678Z,33.90
2022-09-28T11:24:46.182Z,32.70
2022-09-28T11:25:46.677Z,34.20
2022-09-28T11:26:47.716Z,33.90
2022-09-28T11:27:48.283Z,32.60
2022-09-28T11:28:48.810Z,32.60
2022-09-28T11:29:49.315Z,33.00
2022-09-28T11:30:49.899Z,34.10
2022-09-28T11:31:50.463Z,36.60
2022-09-28T11:32:50.972Z,36.10
2022-09-28T11:33:51.487Z,37.50
2022-09-28T11:34:59.634Z,35.30
2022-09-28T11:35:52.842Z,34.90
2022-09-28T11:36:53.369Z,34.80
2022-09-28T11:37:53.861Z,35.10
2022-09-28T11:38:54.352Z,36.30
2022-09-28T11:39:55.366Z,34.80
2022-09-28T11:40:55.921Z,34.70
2022-09-28T11:41:56.494Z,34.00
2022-09-28T11:42:57.054Z,32.80
2022-09-28T11:43:57.619Z,33.40
2022-09-28T11:44:58.136Z,35.80
2022-09-28T11:45:58.695Z,37.90
2022-09-28T11:46:59.244Z,37.60
2022-09-28T11:47:59.745Z,38.70
2022-09-28T11:49:00.244Z,36.80
2022-09-28T11:50:00.759Z,38.60
2022-09-28T11:51:01.256Z,36.30
2022-09-28T11:52:01.979Z,36.40
2022-09-28T11:53:02.518Z,36.50
2022-09-28T11:54:03.016Z,38.10
2022-09-28T11:55:03.516Z,38.80
2022-09-28T11:56:08.514Z,37.50
2022-09-28T11:57:04.912Z,42.10
2022-09-28T11:58:05.420Z,40.50
2022-09-28T11:59:05.953Z,40.90
2022-09-28T12:00:06.450Z,35.80
2022-09-28T12:01:07.447Z,35.10
2022-09-28T12:02:08.652Z,35.80
2022-09-28T12:03:09.375Z,37.00
2022-09-28T12:04:10.026Z,39.20
2022-09-28T12:05:10.526Z,40.60
2022-09-28T12:06:11.028Z,36.70
2022-09-28T12:07:11.560Z,35.80
2022-09-28T12:08:12.054Z,35.10
2022-09-28T12:09:12.587Z,35.80
2022-09-28T12:10:13.101Z,35.10
2022-09-28T12:11:13.621Z,32.80
2022-09-28T12:12:14.149Z,33.30
2022-09-28T12:13:14.653Z,33.50
2022-09-28T12:14:15.191Z,34.70
2022-09-28T12:15:15.691Z,37.40
2022-09-28T12:16:53.100Z,34.60
2022-09-28T12:17:20.098Z,35.20
2022-09-28T12:18:17.888Z,35.70
2022-09-28T12:19:18.575Z,36.60
2022-09-28T12:20:19.104Z,38.70
2022-09-28T12:21:19.607Z,39.00
2022-09-28T12:22:20.140Z,40.30
2022-09-28T12:23:20.646Z,43.00
2022-09-28T12:24:21.148Z,41.60
2022-09-28T12:25:21.656Z,43.70
2022-09-28T12:26:22.162Z,44.30
2022-09-28T12:27:22.704Z,43.90
2022-09-28T12:28:23.207Z,44.30
2022-09-28T12:29:23.728Z,45.20
2022-09-28T12:30:24.231Z,49.40
2022-09-28T12:31:24.829Z,48.30
2022-09-28T12:32:25.368Z,46.80
2022-09-28T12:33:25.871Z,44.00
2022-09-28T12:34:26.368Z,45.00
2022-09-28T12:35:26.868Z,47.60
2022-09-28T12:36:27.365Z,50.10
2022-09-28T12:37:28.424Z,52.10
2022-09-28T12:38:28.939Z,51.50
2022-09-28T12:39:46.998Z,49.80
2022-09-28T12:40:30.483Z,49.80
2022-09-28T12:41:31.055Z,52.10
2022-09-28T12:42:31.588Z,51.00
2022-09-28T12:43:32.094Z,51.30
2022-09-28T12:44:32.646Z,52.30
2022-09-28T12:45:42.888Z,56.30
2022-09-28T12:46:34.020Z,58.00
2022-09-28T12:47:34.606Z,58.30
2022-09-28T12:48:35.110Z,57.20
2022-09-28T12:50:39.947Z,54.70
2022-09-28T12:51:37.266Z,55.80
2022-09-28T12:52:37.951Z,55.00
2022-09-28T12:53:38.492Z,57.70
2022-09-28T12:54:38.991Z,57.60
2022-09-28T12:55:39.498Z,57.30
2022-09-28T12:56:40.011Z,58.50
2022-09-28T12:57:40.535Z,57.90
2022-09-28T12:58:41.035Z,56.00
2022-09-28T12:59:41.565Z,55.40
2022-09-28T13:00:42.071Z,53.80
2022-09-28T13:01:42.649Z,54.20
2022-09-28T13:02:43.335Z,56.40
2022-09-28T13:03:43.888Z,58.00